createdAt,value
2022-11-18T00:01:51.200Z,32.00
2022-11-18T00:04:48.311Z,38.80
2022-11-18T00:07:45.275Z,38.80
2022-11-18T00:10:42.256Z,34.40
2022-11-18T00:13:57.909Z,30.60
2022-11-18T00:17:05.277Z,38.20
2022-11-18T00:20:02.250Z,32.00
2022-11-18T00:23:00.066Z,24.40
2022-11-18T00:26:02.229Z,33.40
2022-11-18T00:28:59.157Z,29.60
2022-11-18T00:31:56.533Z,35.00
2022-11-18T00:34:53.341Z,39.60
2022-11-18T00:37:50.404Z,35.20
2022-11-18T00:40:47.018Z,30.40
2022-11-18T00:43:44.650Z,29.20
2022-11-18T00:46:42.491Z,33.40
2022-11-18T00:49:39.078Z,29.00
2022-11-18T00:52:36.630Z,28.60
2022-11-18T00:55:34.187Z,23.20
2022-11-18T00:58:31.397Z,30.00
2022-11-18T01:01:28.453Z,30.80
2022-11-18T01:04:25.361Z,35.40
2022-11-18T01:07:22.071Z,28.80
2022-11-18T01:10:19.628Z,28.80
2022-11-18T01:13:21.086Z,28.60
2022-11-18T01:16:19.959Z,32.80
2022-11-18T01:19:18.658Z,34.80
2022-11-18T01:22:16.295Z,22.00
2022-11-18T01:25:13.332Z,30.60
2022-11-18T01:28:10.555Z,33.00
2022-11-18T01:31:08.947Z,31.40
2022-11-18T01:34:06.329Z,31.80
2022-11-18T01:37:03.504Z,27.40
2022-11-18T01:40:00.583Z,32.80
2022-11-18T01:42:57.332Z,39.80
2022-11-18T01:45:54.305Z,33.20
2022-11-18T01:48:54.740Z,31.80
2022-11-18T01:51:54.770Z,25.80
2022-11-18T01:54:55.535Z,29.40
2022-11-18T01:57:53.020Z,31.60
2022-11-18T02:00:50.168Z,32.00
2022-11-18T02:03:47.310Z,28.20
2022-11-18T02:06:44.559Z,18.80
2022-11-18T02:09:41.400Z,27.60
2022-11-18T02:12:38.163Z,37.00
2022-11-18T02:15:35.201Z,37.00
2022-11-18T02:18:51.371Z,33.60
2022-11-18T02:22:25.505Z,37.80
2022-11-18T02:25:22.595Z,29.00
2022-11-18T02:28:29.959Z,35.80
2022-11-18T02:31:27.327Z,28.20
2022-11-18T02:34:48.985Z,36.20
2022-11-18T02:37:54.795Z,33.80
2022-11-18T02:40:55.445Z,30.60
2022-11-18T02:43:57.058Z,38.20
2022-11-18T02:46:56.766Z,37.00
2022-11-18T02:49:56.866Z,41.20
2022-11-18T02:52:57.075Z,34.00
2022-11-18T02:55:54.048Z,52.60
2022-11-18T02:58:51.599Z,33.20
2022-11-18T03:01:48.592Z,33.00
2022-11-18T03:04:47.300Z,30.40
2022-11-18T03:07:44.615Z,36.00
2022-11-18T03:10:45.713Z,40.60
2022-11-18T03:14:02.820Z,39.00
2022-11-18T03:17:24.861Z,37.20
2022-11-18T03:20:47.569Z,10.20
2022-11-18T03:23:49.965Z,34.40
2022-11-18T03:26:52.703Z,36.20
2022-11-18T03:29:53.571Z,36.20
2022-11-18T03:33:02.954Z,32.00
2022-11-18T03:36:00.527Z,36.20
2022-11-18T03:38:58.721Z,22.40
2022-11-18T03:41:57.876Z,33.20
2022-11-18T03:44:59.327Z,44.20
2022-11-18T03:48:00.246Z,33.40
2022-11-18T03:51:02.703Z,39.20
2022-11-18T03:54:02.818Z,42.20
2022-11-18T03:57:09.531Z,39.40
2022-11-18T04:00:08.136Z,33.40
2022-11-18T04:03:05.367Z,38.80
2022-11-18T04:06:28.477Z,31.20
2022-11-18T04:09:28.910Z,38.00
2022-11-18T04:12:28.123Z,43.20
2022-11-18T04:15:25.569Z,40.60
2022-11-18T04:18:22.563Z,33.40
2022-11-18T04:21:19.403Z,39.20
2022-11-18T04:24:16.330Z,43.60
2022-11-18T04:27:13.614Z,36.80
2022-11-18T04:30:11.177Z,37.20
2022-11-18T04:33:08.593Z,38.00
2022-11-18T04:36:06.040Z,37.80
2022-11-18T04:39:03.725Z,41.80
2022-11-18T04:42:00.728Z,38.80
2022-11-18T04:44:57.904Z,37.00
2022-11-18T04:48:00.272Z,37.20
2022-11-18T04:51:06.719Z,38.20
2022-11-18T04:54:03.898Z,40.20
2022-11-18T04:57:01.577Z,31.80
2022-11-18T04:59:58.520Z,32.40
2022-11-18T05:02:55.386Z,31.40
2022-11-18T05:05:52.469Z,28.80
2022-11-18T05:08:49.430Z,32.80
2022-11-18T05:12:05.063Z,31.20
2022-11-18T05:15:02.203Z,30.40
2022-11-18T05:18:00.393Z,24.40
2022-11-18T05:20:57.428Z,31.60
2022-11-18T05:23:54.610Z,24.80
2022-11-18T05:26:52.254Z,19.80
2022-11-18T05:29:49.121Z,28.00
2022-11-18T05:32:46.506Z,34.40
2022-11-18T05:35:43.604Z,32.80
2022-11-18T05:38:40.622Z,30.60
2022-11-18T05:41:56.113Z,34.20
2022-11-18T05:44:58.155Z,27.60
2022-11-18T05:48:03.083Z,22.40
2022-11-18T05:51:00.332Z,39.80
2022-11-18T05:54:00.316Z,28.60
2022-11-18T05:56:57.687Z,16.80
2022-11-18T05:59:54.628Z,29.80
2022-11-18T06:02:51.259Z,25.20
2022-11-18T06:05:49.166Z,31.60
2022-11-18T06:08:51.130Z,29.40
2022-11-18T06:11:50.749Z,23.60
2022-11-18T06:14:52.819Z,30.60
2022-11-18T06:17:55.895Z,32.80
2022-11-18T06:20:54.970Z,30.40
2022-11-18T06:23:52.324Z,33.40
2022-11-18T06:26:49.325Z,32.00
2022-11-18T06:29:46.284Z,32.20
2022-11-18T06:32:43.786Z,27.20
2022-11-18T06:35:42.796Z,26.20
2022-11-18T06:38:39.995Z,39.40
2022-11-18T06:41:37.847Z,31.60
2022-11-18T06:44:34.850Z,33.80
2022-11-18T06:47:31.597Z,28.40
2022-11-18T06:50:28.795Z,31.80
2022-11-18T06:53:25.634Z,32.00
2022-11-18T06:56:23.055Z,28.40
2022-11-18T06:59:24.061Z,35.00
2022-11-18T07:02:21.747Z,35.20
2022-11-18T07:05:18.957Z,29.00
2022-11-18T07:08:16.240Z,30.60
2022-11-18T07:11:15.200Z,32.60
2022-11-18T07:14:13.049Z,43.40
2022-11-18T07:17:10.586Z,36.20
2022-11-18T07:20:08.154Z,36.00
2022-11-18T07:23:05.394Z,34.40
2022-11-18T07:26:02.915Z,38.00
2022-11-18T07:29:00.282Z,29.00
2022-11-18T07:31:57.648Z,39.80
2022-11-18T07:34:54.870Z,36.00
2022-11-18T07:37:51.633Z,32.60
2022-11-18T07:40:48.484Z,34.20
2022-11-18T07:43:46.119Z,30.20
2022-11-18T07:46:43.878Z,35.20
2022-11-18T07:49:40.725Z,35.20
2022-11-18T07:52:37.690Z,32.80
2022-11-18T07:55:34.445Z,46.80
2022-11-18T07:58:31.400Z,30.00
2022-11-18T08:01:29.840Z,37.40
2022-11-18T08:04:26.573Z,35.60
2022-11-18T08:07:23.382Z,42.20
2022-11-18T08:10:20.978Z,40.00
2022-11-18T08:13:18.634Z,25.20
2022-11-18T08:16:17.978Z,30.80
2022-11-18T08:19:16.229Z,28.40
2022-11-18T08:22:13.588Z,29.40
2022-11-18T08:25:10.511Z,40.00
2022-11-18T08:28:08.270Z,29.20
2022-11-18T08:31:18.798Z,45.40
2022-11-18T08:34:15.449Z,30.00
2022-11-18T08:37:12.862Z,32.80
2022-11-18T08:40:09.843Z,32.60
2022-11-18T08:43:10.841Z,35.00
2022-11-18T08:46:07.677Z,37.00
2022-11-18T08:49:04.622Z,31.80
2022-11-18T08:52:01.478Z,37.40
2022-11-18T08:54:58.764Z,32.60
2022-11-18T08:57:55.382Z,31.80
2022-11-18T09:00:53.030Z,34.20
2022-11-18T09:03:50.914Z,36.40
2022-11-18T09:06:47.885Z,40.60
2022-11-18T09:09:44.860Z,29.00
2022-11-18T09:12:41.804Z,33.60
2022-11-18T09:15:39.062Z,31.00
2022-11-18T09:18:36.825Z,30.50
2022-11-18T09:21:36.842Z,28.00
2022-11-18T09:24:37.396Z,25.00
2022-11-18T09:27:34.769Z,46.00
2022-11-18T09:30:31.395Z,38.50
2022-11-18T09:33:28.762Z,30.75
2022-11-18T09:36:26.254Z,34.25
2022-11-18T09:39:26.664Z,44.25
2022-11-18T09:42:29.575Z,50.25
2022-11-18T09:45:28.778Z,51.25
2022-11-18T09:48:45.353Z,57.25
2022-11-18T09:51:47.319Z,58.25
2022-11-18T09:54:44.527Z,60.75
2022-11-18T09:57:47.713Z,43.00
2022-11-18T10:00:46.296Z,46.75
2022-11-18T10:03:43.836Z,62.00
2022-11-18T10:06:40.597Z,41.50
2022-11-18T10:09:40.110Z,51.75
2022-11-18T10:12:59.402Z,61.25
2022-11-18T10:15:59.325Z,44.25
2022-11-18T10:19:03.877Z,47.00
2022-11-18T10:22:38.415Z,47.25
2022-11-18T10:25:35.775Z,44.75
2022-11-18T10:28:32.682Z,52.75
2022-11-18T10:31:30.183Z,57.75
2022-11-18T10:34:27.986Z,49.00
2022-11-18T10:37:45.276Z,66.75
2022-11-18T10:40:57.940Z,52.00
2022-11-18T10:43:56.112Z,71.00
2022-11-18T10:46:53.502Z,53.00
2022-11-18T10:49:57.994Z,46.25
2022-11-18T10:52:54.792Z,51.25
2022-11-18T10:56:11.650Z,56.75
2022-11-18T10:59:31.641Z,46.50
2022-11-18T11:02:54.605Z,54.25
2022-11-18T11:06:21.223Z,45.25
2022-11-18T11:09:31.266Z,52.75
2022-11-18T11:12:40.414Z,63.25
2022-11-18T11:15:45.300Z,43.00
2022-11-18T11:18:42.787Z,56.00
2022-11-18T11:21:39.465Z,57.75
2022-11-18T11:24:36.936Z,47.25
2022-11-18T11:31:23.936Z,55.25
2022-11-18T11:34:36.823Z,58.75
2022-11-18T11:37:55.080Z,59.00
2022-11-18T11:41:23.122Z,58.75
2022-11-18T11:44:28.584Z,53.25
2022-11-18T11:47:50.064Z,45.00
2022-11-18T11:51:04.307Z,59.50
2022-11-18T11:54:30.001Z,60.50
2022-11-18T11:58:02.496Z,57.75
2022-11-18T12:01:27.259Z,57.75
2022-11-18T12:04:36.991Z,59.00
2022-11-18T12:07:39.377Z,50.75
2022-11-18T12:11:03.991Z,57.00
2022-11-18T12:14:03.995Z,69.25
2022-11-18T12:17:11.972Z,55.25
2022-11-18T12:20:40.064Z,39.75
2022-11-18T12:23:38.005Z,51.00
2022-11-18T12:26:35.206Z,56.00
2022-11-18T12:29:53.326Z,34.00
2022-11-18T12:32:57.287Z,49.50
2022-11-18T12:35:54.935Z,50.25
2022-11-18T12:38:52.585Z,59.00
2022-11-18T12:42:20.821Z,58.50
2022-11-18T12:45:46.016Z,31.25
2022-11-18T12:48:43.364Z,44.75
2022-11-18T12:51:41.503Z,44.25
2022-11-18T12:54:45.390Z,44.75
2022-11-18T12:57:42.782Z,51.50
2022-11-18T13:00:55.096Z,53.00
2022-11-18T13:03:52.923Z,40.75
2022-11-18T13:06:51.150Z,28.25
2022-11-18T13:09:48.899Z,39.00
2022-11-18T13:12:45.861Z,53.75
2022-11-18T13:16:01.467Z,41.75
2022-11-18T13:18:59.191Z,49.50
2022-11-18T13:22:17.427Z,38.50
2022-11-18T13:25:24.947Z,40.00
2022-11-18T13:28:25.754Z,43.75
2022-11-18T13:31:31.822Z,29.50
2022-11-18T13:34:29.684Z,29.25
2022-11-18T13:37:28.747Z,35.50
2022-11-18T13:40:31.493Z,28.75
2022-11-18T13:43:29.033Z,42.50
2022-11-18T13:46:26.067Z,42.50
2022-11-18T13:49:27.810Z,39.00
2022-11-18T13:52:30.648Z,36.00
2022-11-18T13:55:29.325Z,36.00
2022-11-18T13:59:02.740Z,45.50
2022-11-18T14:01:59.309Z,46.25
2022-11-18T14:04:58.319Z,48.75
2022-11-18T14:08:06.439Z,42.00
2022-11-18T14:11:04.316Z,48.25
2022-11-18T14:14:01.589Z,31.50
2022-11-18T14:17:17.402Z,44.00
2022-11-18T14:20:16.585Z,47.50
2022-11-18T14:23:14.282Z,43.50
2022-11-18T14:26:11.876Z,44.00
2022-11-18T14:29:23.099Z,43.50
2022-11-18T14:32:21.657Z,36.00
2022-11-18T14:35:20.149Z,39.00
2022-11-18T14:38:38.290Z,29.50
2022-11-18T14:41:50.000Z,25.75
2022-11-18T14:44:46.841Z,41.00
2022-11-18T14:47:43.898Z,37.50
2022-11-18T14:50:41.115Z,41.00
2022-11-18T14:53:37.568Z,30.00
2022-11-18T14:56:35.010Z,41.50
2022-11-18T14:59:31.972Z,35.25
2022-11-18T15:02:28.967Z,38.75
2022-11-18T15:05:26.105Z,33.75
2022-11-18T15:08:23.212Z,33.00
2022-11-18T15:11:21.165Z,40.00
2022-11-18T15:14:19.357Z,36.75
2022-11-18T15:17:16.713Z,26.00
2022-11-18T15:20:15.180Z,32.75
2022-11-18T15:23:11.809Z,33.25
2022-11-18T15:26:22.605Z,35.00
2022-11-18T15:29:21.544Z,38.25
2022-11-18T15:32:18.890Z,33.75
2022-11-18T15:35:15.884Z,32.75
2022-11-18T15:38:13.106Z,34.50
2022-11-18T15:41:17.269Z,29.75
2022-11-18T15:44:15.047Z,30.50
2022-11-18T15:47:12.014Z,28.25
2022-11-18T15:50:09.141Z,38.50
2022-11-18T15:53:05.717Z,37.75
2022-11-18T15:56:23.998Z,34.75
2022-11-18T15:59:21.326Z,35.00
2022-11-18T16:02:19.052Z,38.75
2022-11-18T16:05:16.090Z,33.00
2022-11-18T16:08:13.093Z,46.25
2022-11-18T16:11:32.760Z,42.75
2022-11-18T16:14:30.169Z,44.25
2022-11-18T16:17:27.038Z,44.25
2022-11-18T16:20:27.338Z,48.25
2022-11-18T16:23:25.408Z,42.50
2022-11-18T16:26:23.196Z,37.00
2022-11-18T16:29:20.981Z,35.75
2022-11-18T16:32:19.175Z,47.33
2022-11-18T16:35:16.237Z,49.00
2022-11-18T16:38:14.486Z,52.75
2022-11-18T16:41:47.278Z,49.00
2022-11-18T16:44:44.985Z,43.00
2022-11-18T16:47:42.226Z,55.50
2022-11-18T16:50:39.310Z,41.25
2022-11-18T16:53:37.072Z,41.50
2022-11-18T16:56:35.076Z,58.67
2022-11-18T16:59:31.918Z,45.75
2022-11-18T17:02:31.589Z,43.50
2022-11-18T17:05:29.052Z,51.50
2022-11-18T17:08:26.143Z,53.50
2022-11-18T17:11:23.060Z,52.00
2022-11-18T17:14:19.973Z,56.50
2022-11-18T17:17:17.134Z,48.67
2022-11-18T17:20:14.283Z,55.33
2022-11-18T17:23:11.179Z,54.67
2022-11-18T17:26:08.622Z,45.00
2022-11-18T17:29:06.001Z,48.67
2022-11-18T17:32:03.152Z,55.00
2022-11-18T17:35:00.246Z,46.67
2022-11-18T17:37:56.990Z,66.33
2022-11-18T17:40:57.691Z,59.25
2022-11-18T17:43:55.036Z,53.67
2022-11-18T17:46:52.245Z,69.25
2022-11-18T17:49:49.255Z,70.00
2022-11-18T17:52:45.876Z,70.67
2022-11-18T17:55:42.915Z,106.50
2022-11-18T17:58:40.718Z,66.33
2022-11-18T18:01:38.024Z,79.67
2022-11-18T18:04:35.281Z,67.67
2022-11-18T18:07:32.114Z,68.67
2022-11-18T18:10:29.149Z,72.00
2022-11-18T18:13:44.874Z,52.33
2022-11-18T18:16:49.467Z,69.67
2022-11-18T18:19:47.016Z,70.00
2022-11-18T18:22:44.049Z,60.33
2022-11-18T18:25:40.981Z,77.00
2022-11-18T18:28:37.983Z,53.67
2022-11-18T18:31:35.583Z,62.00
2022-11-18T18:34:33.130Z,46.33
2022-11-18T18:37:29.890Z,75.50
2022-11-18T18:40:27.299Z,57.33
2022-11-18T18:43:24.025Z,44.67
2022-11-18T18:46:34.633Z,51.33
2022-11-18T18:49:31.916Z,51.67
2022-11-18T18:52:31.520Z,53.67
2022-11-18T18:55:29.191Z,70.00
2022-11-18T18:58:27.028Z,56.33
2022-11-18T19:01:24.349Z,43.33
2022-11-18T19:04:22.284Z,59.33
2022-11-18T19:07:20.072Z,64.00
2022-11-18T19:10:17.427Z,60.33
2022-11-18T19:13:14.816Z,62.67
2022-11-18T19:16:12.349Z,69.00
2022-11-18T19:19:09.769Z,59.67
2022-11-18T19:22:07.408Z,57.67
2022-11-18T19:25:05.165Z,56.67
2022-11-18T19:28:02.164Z,56.33
2022-11-18T19:30:59.898Z,70.00
2022-11-18T19:33:56.948Z,50.33
2022-11-18T19:36:54.361Z,58.75
2022-11-18T19:39:51.072Z,52.67
2022-11-18T19:42:48.350Z,56.33
2022-11-18T19:45:52.328Z,51.67
2022-11-18T19:48:51.149Z,42.33
2022-11-18T19:51:48.351Z,47.67
2022-11-18T19:54:45.155Z,57.00
2022-11-18T19:57:42.436Z,51.33
2022-11-18T20:00:40.026Z,60.33
2022-11-18T20:03:37.192Z,42.00
2022-11-18T20:06:34.731Z,62.67
2022-11-18T20:09:32.454Z,51.67
2022-11-18T20:12:30.448Z,54.00
2022-11-18T20:15:28.244Z,57.67
2022-11-18T20:18:25.407Z,45.67
2022-11-18T20:21:23.632Z,55.33
2022-11-18T20:24:21.244Z,46.67
2022-11-18T20:27:19.024Z,49.00
2022-11-18T20:30:17.648Z,37.33
2022-11-18T20:33:15.332Z,47.67
2022-11-18T20:36:15.164Z,43.00
2022-11-18T20:39:14.778Z,41.67
2022-11-18T20:42:30.766Z,41.67
2022-11-18T20:45:28.027Z,49.67
2022-11-18T20:48:25.105Z,58.33
2022-11-18T20:51:24.071Z,48.67
2022-11-18T20:54:21.736Z,39.67
2022-11-18T20:57:19.649Z,35.67
2022-11-18T21:00:17.744Z,48.67
2022-11-18T21:03:15.470Z,39.67
2022-11-18T21:06:14.443Z,44.00
2022-11-18T21:09:12.148Z,47.67
2022-11-18T21:12:09.607Z,36.33
2022-11-18T21:15:08.186Z,34.00
2022-11-18T21:18:05.159Z,42.25
2022-11-18T21:21:20.849Z,44.33
2022-11-18T21:24:18.230Z,33.00
2022-11-18T21:27:15.641Z,38.00
2022-11-18T21:30:13.511Z,33.75
2022-11-18T21:33:12.781Z,50.67
2022-11-18T21:36:10.730Z,34.00
2022-11-18T21:39:08.420Z,45.67
2022-11-18T21:42:05.369Z,29.00
2022-11-18T21:45:02.033Z,36.33
2022-11-18T21:47:59.299Z,28.00
2022-11-18T21:50:59.174Z,37.33
2022-11-18T21:53:56.363Z,43.67
2022-11-18T21:56:53.797Z,41.33
2022-11-18T21:59:51.444Z,36.33
2022-11-18T22:02:48.081Z,36.33
2022-11-18T22:05:45.312Z,42.67
2022-11-18T22:08:42.345Z,41.67
2022-11-18T22:11:38.927Z,40.67
2022-11-18T22:14:36.262Z,35.33
2022-11-18T22:17:33.202Z,39.00
2022-11-18T22:20:29.928Z,56.67
2022-11-18T22:23:31.203Z,46.33
2022-11-18T22:26:28.581Z,45.67
2022-11-18T22:29:26.415Z,37.67
2022-11-18T22:32:23.356Z,38.75
2022-11-18T22:35:20.386Z,38.00
2022-11-18T22:38:17.136Z,40.50
2022-11-18T22:41:34.720Z,36.75
2022-11-18T22:44:32.143Z,33.25
2022-11-18T22:47:29.247Z,35.50
2022-11-18T22:50:26.469Z,36.67
2022-11-18T22:53:23.380Z,39.25
2022-11-18T22:56:20.296Z,37.50
2022-11-18T22:59:17.769Z,39.67
2022-11-18T23:02:15.876Z,30.00
2022-11-18T23:05:13.443Z,28.50
2022-11-18T23:08:11.705Z,30.00
2022-11-18T23:11:10.829Z,40.33
2022-11-18T23:14:10.330Z,30.50
2022-11-18T23:17:07.147Z,32.00
2022-11-18T23:20:04.463Z,39.50
2022-11-18T23:23:01.129Z,31.00
2022-11-18T23:26:11.595Z,25.50
2022-11-18T23:29:09.969Z,24.50
2022-11-18T23:32:07.330Z,24.25
2022-11-18T23:35:05.645Z,23.00
2022-11-18T23:38:03.319Z,28.25
2022-11-18T23:41:01.508Z,12.75
2022-11-18T23:43:57.901Z,19.75
2022-11-18T23:46:54.844Z,45.67
2022-11-18T23:49:52.605Z,22.25
2022-11-18T23:52:50.084Z,22.25
2022-11-18T23:55:47.096Z,24.75
2022-11-18T23:58:49.018Z,28.00
